Time;durP1;ratioP1;P1;durP2;ratioP2;P2;SDS_P1;SDS_P2;PMS_P1;PMS_P2;Temp;Humidity;BMP_temperature;BMP_pressure;BME280_temperature;BME280_humidity;BME280_pressure;Samples;Min_cycle;Max_cycle;Signal;HPM_P1;HPM_P2
2024/04/09 00:01:17;;;;;;;;;;;;;;;;;;5421267;26;5136;-58
2024/04/09 00:03:43;;;;;;;;;;;;;;;;;;5421618;26;3433;-58
2024/04/09 00:06:14;;;;;;;;;;;;;;;;;;5414017;26;4505;-58
2024/04/09 00:08:40;;;;;;;;;;;;;;;;;;5421793;26;5029;-58
2024/04/09 00:11:06;;;;;;;;;;;;;;;;;;5417866;26;5139;-58
2024/04/09 00:13:32;;;;;;;;;;;;;;;;;;5418037;26;5119;-58
2024/04/09 00:15:57;;;;;;;;;;;;;;;;;;5416375;26;4721;-58
2024/04/09 00:18:24;;;;;;;;;;;;;;;;;;5411053;26;3810;-58
2024/04/09 00:20:53;;;;;;;;;;;;;;;;;;5428832;26;5973;-58
2024/04/09 00:23:18;;;;;;;;;;;;;;;;;;5409573;26;4563;-58
2024/04/09 00:25:46;;;;;;;;;;;;;;;;;;5409164;26;5285;-57
2024/04/09 00:28:12;;;;;;;;;;;;;;;;;;5420233;26;5160;-58
2024/04/09 00:30:37;;;;;;;;;;;;;;;;;;5415728;26;3670;-58
2024/04/09 00:33:03;;;;;;;;;;;;;;;;;;5405287;26;4708;-57
2024/04/09 00:35:28;;;;;;;;;;;;;;;;;;5421133;26;6243;-57
2024/04/09 00:37:56;;;;;;;;;;;;;;;;;;5413267;26;5197;-57
2024/04/09 00:40:22;;;;;;;;;;;;;;;;;;5400544;26;4617;-57
2024/04/09 00:42:49;;;;;;;;;;;;;;;;;;5422540;26;3802;-59
2024/04/09 00:45:16;;;;;;;;;;;;;;;;;;5406740;26;4964;-59
2024/04/09 00:47:43;;;;;;;;;;;;;;;;;;5443277;26;5123;-59
2024/04/09 00:50:11;;;;;;;;;;;;;;;;;;5402711;26;5731;-58
2024/04/09 00:52:37;;;;;;;;;;;;;;;;;;5400798;26;5178;-58
2024/04/09 00:55:03;;;;;;;;;;;;;;;;;;5402559;26;5107;-59
2024/04/09 00:57:29;;;;;;;;;;;;;;;;;;5435920;26;3526;-60
2024/04/09 00:59:54;;;;;;;;;;;;;;;;;;5414689;26;5156;-58
2024/04/09 01:02:21;;;;;;;;;;;;;;;;;;5433760;26;4574;-59
2024/04/09 01:04:46;;;;;;;;;;;;;;;;;;5400414;26;4663;-58
2024/04/09 01:07:11;;;;;;;;;;;;;;;;;;5392085;26;5454;-59
2024/04/09 01:09:40;;;;;;;;;;;;;;;;;;5404989;26;3461;-59
2024/04/09 01:12:06;;;;;;;;;;;;;;;;;;5408886;26;4507;-56
2024/04/09 01:14:31;;;;;;;;;;;;;;;;;;5425959;26;5139;-59
2024/04/09 01:16:57;;;;;;;;;;;;;;;;;;5402563;26;5060;-58
2024/04/09 01:19:22;;;;;;;;;;;;;;;;;;5416602;26;4653;-58
2024/04/09 01:21:47;;;;;;;;;;;;;;;;;;5424940;26;1266;-58
2024/04/09 01:24:13;;;;;;;;;;;;;;;;;;5420914;26;4467;-58
2024/04/09 01:26:40;;;;;;;;;;;;;;;;;;5425807;26;5166;-58
2024/04/09 01:29:05;;;;;;;;;;;;;;;;;;5424863;26;5069;-59
2024/04/09 01:31:31;;;;;;;;;;;;;;;;;;5406942;26;5097;-58
2024/04/09 01:33:57;;;;;;;;;;;;;;;;;;5435813;26;4526;-58
2024/04/09 01:36:23;;;;;;;;;;;;;;;;;;5417823;26;3552;-58
2024/04/09 01:38:49;;;;;;;;;;;;;;;;;;5427479;26;4534;-58
2024/04/09 01:41:15;;;;;;;;;;;;;;;;;;5425981;26;4572;-59
2024/04/09 01:43:40;;;;;;;;;;;;;;;;;;5421138;26;5031;-58
2024/04/09 01:46:08;;;;;;;;;;;;;;;;;;5428150;26;4587;-58
2024/04/09 01:48:33;;;;;;;;;;;;;;;;;;5412690;26;3787;-58
2024/04/09 01:50:59;;;;;;;;;;;;;;;;;;5421919;26;5518;-58
2024/04/09 01:53:24;;;;;;;;;;;;;;;;;;5424731;26;4674;-58
2024/04/09 01:55:58;;;;;;;;;;;;;;;;;;5429334;26;5169;-58
2024/04/09 01:58:24;;;;;;;;;;;;;;;;;;5408780;26;4548;-58
2024/04/09 02:00:49;;;;;;;;;;;;;;;;;;5413210;26;3600;-58
2024/04/09 02:03:15;;;;;;;;;;;;;;;;;;5405694;26;5208;-58
2024/04/09 02:05:41;;;;;;;;;;;;;;;;;;5392475;26;5895;-58
2024/04/09 02:08:06;;;;;;;;;;;;;;;;;;5405731;26;5208;-57
2024/04/09 02:10:31;;;;;;;;;;;;;;;;;;5406326;26;5202;-59
2024/04/09 02:12:57;;;;;;;;;;;;;;;;;;5423682;26;5131;-59
2024/04/09 02:15:23;;;;;;;;;;;;;;;;;;5412256;26;3567;-58
2024/04/09 02:17:48;;;;;;;;;;;;;;;;;;5402801;26;5062;-58
2024/04/09 02:20:14;;;;;;;;;;;;;;;;;;5412311;26;6082;-58
2024/04/09 02:22:39;;;;;;;;;;;;;;;;;;5404249;26;4510;-58
2024/04/09 02:25:05;;;;;;;;;;;;;;;;;;5410384;26;5118;-58
2024/04/09 02:27:30;;;;;;;;;;;;;;;;;;5424882;26;3533;-58
2024/04/09 02:29:59;;;;;;;;;;;;;;;;;;5407464;26;5035;-58
2024/04/09 02:32:25;;;;;;;;;;;;;;;;;;5411967;26;5160;-58
2024/04/09 02:34:50;;;;;;;;;;;;;;;;;;5396057;26;5149;-58
2024/04/09 02:37:16;;;;;;;;;;;;;;;;;;5399766;26;5118;-58
2024/04/09 02:39:41;;;;;;;;;;;;;;;;;;5406535;26;3555;-58
2024/04/09 02:42:13;;;;;;;;;;;;;;;;;;5400313;26;4866;-59
2024/04/09 02:44:38;;;;;;;;;;;;;;;;;;5420003;26;4573;-58
2024/04/09 02:47:04;;;;;;;;;;;;;;;;;;5427432;26;5196;-59
2024/04/09 02:49:30;;;;;;;;;;;;;;;;;;5407258;26;5185;-58
2024/04/09 02:51:56;;;;;;;;;;;;;;;;;;5401288;26;4654;-58
2024/04/09 02:54:21;;;;;;;;;;;;;;;;;;5416434;26;3971;-59
2024/04/09 02:56:47;;;;;;;;;;;;;;;;;;5409674;26;4507;-58
2024/04/09 02:59:13;;;;;;;;;;;;;;;;;;5423344;26;5078;-58
2024/04/09 03:01:39;;;;;;;;;;;;;;;;;;5406325;26;5134;-58
2024/04/09 03:04:04;;;;;;;;;;;;;;;;;;5409761;26;4544;-58
2024/04/09 03:06:30;;;;;;;;;;;;;;;;;;5401746;26;3554;-58
2024/04/09 03:08:55;;;;;;;;;;;;;;;;;;5414766;26;5099;-58
2024/04/09 03:11:21;;;;;;;;;;;;;;;;;;5413575;26;5165;-58
2024/04/09 03:13:47;;;;;;;;;;;;;;;;;;5410270;26;4558;-58
2024/04/09 03:16:16;;;;;;;;;;;;;;;;;;5417318;26;5375;-58
2024/04/09 03:18:42;;;;;;;;;;;;;;;;;;5414272;26;4196;-58
2024/04/09 03:21:07;;;;;;;;;;;;;;;;;;5418538;26;5751;-59
2024/04/09 03:23:33;;;;;;;;;;;;;;;;;;5410987;26;4555;-58
2024/04/09 03:25:58;;;;;;;;;;;;;;;;;;5405219;26;5092;-58
2024/04/09 03:28:23;;;;;;;;;;;;;;;;;;5414011;26;5213;-58
2024/04/09 03:30:56;;;;;;;;;;;;;;;;;;5414762;26;1340;-58
2024/04/09 03:33:21;;;;;;;;;;;;;;;;;;5419001;26;4430;-58
2024/04/09 03:35:50;;;;;;;;;;;;;;;;;;5448385;26;4676;-59
2024/04/09 03:38:15;;;;;;;;;;;;;;;;;;5419505;26;5224;-58
2024/04/09 03:40:40;;;;;;;;;;;;;;;;;;5424422;26;4610;-58
2024/04/09 03:43:06;;;;;;;;;;;;;;;;;;5446288;26;4738;-58
2024/04/09 03:45:31;;;;;;;;;;;;;;;;;;5446718;26;3555;-58
2024/04/09 03:47:56;;;;;;;;;;;;;;;;;;5459568;26;4593;-58
2024/04/09 03:50:22;;;;;;;;;;;;;;;;;;5432684;26;5140;-59
2024/04/09 03:52:48;;;;;;;;;;;;;;;;;;5431473;26;5786;-58
2024/04/09 03:55:13;;;;;;;;;;;;;;;;;;5430296;26;5170;-58
2024/04/09 03:57:40;;;;;;;;;;;;;;;;;;5410147;26;3786;-58
2024/04/09 04:00:11;;;;;;;;;;;;;;;;;;5415602;26;5154;-58
2024/04/09 04:02:37;;;;;;;;;;;;;;;;;;5444233;26;5048;-59
2024/04/09 04:05:02;;;;;;;;;;;;;;;;;;5456849;25;5236;-58
2024/04/09 04:07:27;;;;;;;;;;;;;;;;;;5436406;26;5116;-58
2024/04/09 04:09:53;;;;;;;;;;;;;;;;;;5424717;26;5094;-59
2024/04/09 04:12:18;;;;;;;;;;;;;;;;;;5448893;26;3826;-58
2024/04/09 04:14:44;;;;;;;;;;;;;;;;;;5421520;26;5224;-58
2024/04/09 04:17:10;;;;;;;;;;;;;;;;;;5430546;26;5343;-57
2024/04/09 04:19:35;;;;;;;;;;;;;;;;;;5442170;26;5245;-58
2024/04/09 04:22:00;;;;;;;;;;;;;;;;;;5422754;26;5146;-58
2024/04/09 04:24:29;;;;;;;;;;;;;;;;;;5460781;26;3366;-58
2024/04/09 04:26:54;;;;;;;;;;;;;;;;;;5458944;26;5216;-58
2024/04/09 04:29:20;;;;;;;;;;;;;;;;;;5445173;26;4681;-58
2024/04/09 04:31:45;;;;;;;;;;;;;;;;;;5431814;26;5674;-58
2024/04/09 04:34:11;;;;;;;;;;;;;;;;;;5424289;26;4973;-58
2024/04/09 04:36:36;;;;;;;;;;;;;;;;;;5464385;26;1246;-58
2024/04/09 04:39:03;;;;;;;;;;;;;;;;;;5419408;26;4520;-58
2024/04/09 04:41:28;;;;;;;;;;;;;;;;;;5455831;26;4686;-59
2024/04/09 04:43:55;;;;;;;;;;;;;;;;;;5457466;26;4722;-57
2024/04/09 04:46:21;;;;;;;;;;;;;;;;;;5446915;26;4548;-57
2024/04/09 04:48:46;;;;;;;;;;;;;;;;;;5447410;26;3343;-57
2024/04/09 04:51:12;;;;;;;;;;;;;;;;;;5455217;26;5183;-57
2024/04/09 04:53:37;;;;;;;;;;;;;;;;;;5431198;26;4707;-57
2024/04/09 04:56:02;;;;;;;;;;;;;;;;;;5427546;26;4693;-57
2024/04/09 04:58:28;;;;;;;;;;;;;;;;;;5459705;26;5116;-57
2024/04/09 05:00:53;;;;;;;;;;;;;;;;;;5449943;26;5119;-58
2024/04/09 05:03:19;;;;;;;;;;;;;;;;;;5409843;26;3541;-57
2024/04/09 05:05:45;;;;;;;;;;;;;;;;;;5433309;26;5017;-57
2024/04/09 05:08:10;;;;;;;;;;;;;;;;;;5422142;26;5224;-57
2024/04/09 05:10:38;;;;;;;;;;;;;;;;;;5420303;26;5177;-56
2024/04/09 05:13:04;;;;;;;;;;;;;;;;;;5457445;26;5226;-56
2024/04/09 05:15:30;;;;;;;;;;;;;;;;;;5421150;26;1510;-56
2024/04/09 05:17:55;;;;;;;;;;;;;;;;;;5472236;26;4592;-55
2024/04/09 05:20:27;;;;;;;;;;;;;;;;;;5432458;26;5212;-56
2024/04/09 05:22:52;;;;;;;;;;;;;;;;;;5440715;26;5089;-54
2024/04/09 05:25:17;;;;;;;;;;;;;;;;;;5439593;26;5065;-57
2024/04/09 05:27:46;;;;;;;;;;;;;;;;;;5418318;26;3395;-56
2024/04/09 05:30:12;;;;;;;;;;;;;;;;;;5444017;26;4430;-56
2024/04/09 05:32:43;;;;;;;;;;;;;;;;;;5437295;26;5232;-56
2024/04/09 05:35:11;;;;;;;;;;;;;;;;;;5455691;26;5230;-56
2024/04/09 05:37:37;;;;;;;;;;;;;;;;;;5457346;26;5327;-54
2024/04/09 05:40:05;;;;;;;;;;;;;;;;;;5434615;26;5358;-55
2024/04/09 05:42:35;;;;;;;;;;;;;;;;;;5443081;26;3433;-54
2024/04/09 05:45:00;;;;;;;;;;;;;;;;;;5421054;26;5154;-57
2024/04/09 05:47:25;;;;;;;;;;;;;;;;;;5427491;26;5028;-57
2024/04/09 05:49:51;;;;;;;;;;;;;;;;;;5441230;26;5114;-56
2024/04/09 05:52:16;;;;;;;;;;;;;;;;;;5402180;26;4627;-57
2024/04/09 05:54:43;;;;;;;;;;;;;;;;;;5465370;26;3463;-56
2024/04/09 05:57:08;;;;;;;;;;;;;;;;;;5417316;26;5038;-56
2024/04/09 05:59:34;;;;;;;;;;;;;;;;;;5416933;26;5123;-56
2024/04/09 06:01:59;;;;;;;;;;;;;;;;;;5406509;26;5221;-57
2024/04/09 06:04:25;;;;;;;;;;;;;;;;;;5410027;26;4665;-57
2024/04/09 06:06:53;;;;;;;;;;;;;;;;;;5406564;26;3641;-56
2024/04/09 06:09:19;;;;;;;;;;;;;;;;;;5407759;26;5292;-54
2024/04/09 06:11:45;;;;;;;;;;;;;;;;;;5434947;26;5081;-55
2024/04/09 06:14:10;;;;;;;;;;;;;;;;;;5432323;26;4550;-57
2024/04/09 06:16:35;;;;;;;;;;;;;;;;;;5409858;26;5148;-55
2024/04/09 06:19:01;;;;;;;;;;;;;;;;;;5437092;26;5213;-56
2024/04/09 06:21:26;;;;;;;;;;;;;;;;;;5477352;26;1370;-57
2024/04/09 06:23:51;;;;;;;;;;;;;;;;;;5452473;26;4563;-55
2024/04/09 06:26:20;;;;;;;;;;;;;;;;;;5441534;26;4503;-56
2024/04/09 06:28:45;;;;;;;;;;;;;;;;;;5436078;26;5135;-57
2024/04/09 06:31:10;;;;;;;;;;;;;;;;;;5432900;26;5172;-56
2024/04/09 06:33:36;;;;;;;;;;;;;;;;;;5459469;26;3592;-57
2024/04/09 06:36:01;;;;;;;;;;;;;;;;;;5441622;26;6068;-57
2024/04/09 06:38:26;;;;;;;;;;;;;;;;;;5463385;26;5093;-57
2024/04/09 06:40:54;;;;;;;;;;;;;;;;;;5441721;26;5105;-55
2024/04/09 06:43:20;;;;;;;;;;;;;;;;;;5443551;26;5104;-55
2024/04/09 06:45:45;;;;;;;;;;;;;;;;;;5444875;26;3379;-56
2024/04/09 06:48:10;;;;;;;;;;;;;;;;;;5438043;26;5146;-56
2024/04/09 06:50:36;;;;;;;;;;;;;;;;;;5447583;26;5819;-56
2024/04/09 06:53:01;;;;;;;;;;;;;;;;;;5464156;26;5195;-55
2024/04/09 06:55:27;;;;;;;;;;;;;;;;;;5434653;26;5060;-56
2024/04/09 06:57:52;;;;;;;;;;;;;;;;;;5454705;26;4562;-56
2024/04/09 07:00:17;;;;;;;;;;;;;;;;;;5423212;26;3527;-56
2024/04/09 07:02:43;;;;;;;;;;;;;;;;;;5419648;26;5098;-56
2024/04/09 07:05:09;;;;;;;;;;;;;;;;;;5429514;26;5733;-56
2024/04/09 07:07:35;;;;;;;;;;;;;;;;;;5421302;26;5117;-56
2024/04/09 07:10:01;;;;;;;;;;;;;;;;;;5434364;26;4590;-55
2024/04/09 07:12:27;;;;;;;;;;;;;;;;;;5466106;26;3554;-56
2024/04/09 07:14:52;;;;;;;;;;;;;;;;;;5412519;26;5087;-56
2024/04/09 07:17:17;;;;;;;;;;;;;;;;;;5439238;26;4627;-56
2024/04/09 07:19:43;;;;;;;;;;;;;;;;;;5448935;26;5108;-56
2024/04/09 07:22:09;;;;;;;;;;;;;;;;;;5456997;26;5108;-56
2024/04/09 07:24:35;;;;;;;;;;;;;;;;;;5422107;26;1353;-55
2024/04/09 07:27:02;;;;;;;;;;;;;;;;;;5444645;26;5315;-56
2024/04/09 07:29:28;;;;;;;;;;;;;;;;;;5438019;26;4670;-56
2024/04/09 07:31:54;;;;;;;;;;;;;;;;;;5447629;26;5192;-56
2024/04/09 07:34:19;;;;;;;;;;;;;;;;;;5462409;26;4601;-56
2024/04/09 07:36:45;;;;;;;;;;;;;;;;;;5459322;26;1376;-56
2024/04/09 07:39:14;;;;;;;;;;;;;;;;;;5467809;26;4487;-56
2024/04/09 07:41:40;;;;;;;;;;;;;;;;;;5443663;26;5244;-55
2024/04/09 07:44:05;;;;;;;;;;;;;;;;;;5443974;26;4603;-55
2024/04/09 07:46:30;;;;;;;;;;;;;;;;;;5448539;26;5192;-56
2024/04/09 07:48:59;;;;;;;;;;;;;;;;;;5425983;26;6371;-56
2024/04/09 07:51:25;;;;;;;;;;;;;;;;;;5420618;26;1472;-56
2024/04/09 07:53:51;;;;;;;;;;;;;;;;;;5465539;26;4536;-56
2024/04/09 07:56:17;;;;;;;;;;;;;;;;;;5441865;26;5024;-55
2024/04/09 07:58:42;;;;;;;;;;;;;;;;;;5439497;26;4657;-56
2024/04/09 08:01:08;;;;;;;;;;;;;;;;;;5450172;26;4557;-56
2024/04/09 08:03:33;;;;;;;;;;;;;;;;;;5417992;26;1309;-55
2024/04/09 08:05:58;;;;;;;;;;;;;;;;;;5473706;26;5021;-56
2024/04/09 08:08:24;;;;;;;;;;;;;;;;;;5448397;26;5070;-54
2024/04/09 08:10:49;;;;;;;;;;;;;;;;;;5446128;26;5163;-56
2024/04/09 08:13:14;;;;;;;;;;;;;;;;;;5465298;26;5250;-56
2024/04/09 08:15:40;;;;;;;;;;;;;;;;;;5398876;26;3612;-56
2024/04/09 08:18:05;;;;;;;;;;;;;;;;;;5464810;26;4584;-56
2024/04/09 08:20:31;;;;;;;;;;;;;;;;;;5481631;26;4611;-56
2024/04/09 08:22:56;;;;;;;;;;;;;;;;;;5456064;26;4665;-56
2024/04/09 08:25:21;;;;;;;;;;;;;;;;;;5480114;26;5200;-56
2024/04/09 08:27:51;;;;;;;;;;;;;;;;;;5479215;26;1938;-56
2024/04/09 08:30:17;;;;;;;;;;;;;;;;;;5449780;26;5055;-56
2024/04/09 08:32:43;;;;;;;;;;;;;;;;;;5444455;26;5103;-54
2024/04/09 08:35:11;;;;;;;;;;;;;;;;;;5469334;26;4978;-56
2024/04/09 08:37:37;;;;;;;;;;;;;;;;;;5461731;26;5132;-56
2024/04/09 08:40:03;;;;;;;;;;;;;;;;;;5462480;26;5175;-55
2024/04/09 08:42:28;;;;;;;;;;;;;;;;;;5465817;26;1389;-55
2024/04/09 08:44:55;;;;;;;;;;;;;;;;;;5452094;26;4562;-56
2024/04/09 08:47:20;;;;;;;;;;;;;;;;;;5439113;26;5114;-56
2024/04/09 08:49:49;;;;;;;;;;;;;;;;;;5438184;26;6174;-56
2024/04/09 08:52:18;;;;;;;;;;;;;;;;;;5436027;26;5247;-55
2024/04/09 08:54:43;;;;;;;;;;;;;;;;;;5453847;26;1533;-56
2024/04/09 08:57:08;;;;;;;;;;;;;;;;;;5474406;26;4795;-56
2024/04/09 08:59:34;;;;;;;;;;;;;;;;;;5428350;26;4548;-55
2024/04/09 09:02:03;;;;;;;;;;;;;;;;;;5422843;26;5139;-56
2024/04/09 09:04:37;;;;;;;;;;;;;;;;;;5421410;26;5522;-55
2024/04/09 09:07:04;;;;;;;;;;;;;;;;;;5445331;26;5057;-56
2024/04/09 09:09:29;;;;;;;;;;;;;;;;;;5469098;26;1286;-56
2024/04/09 09:12:05;;;;;;;;;;;;;;;;;;5394652;26;5141;-56
2024/04/09 09:14:31;;;;;;;;;;;;;;;;;;5422756;26;4729;-56
2024/04/09 09:17:02;;;;;;;;;;;;;;;;;;5413873;26;5103;-54
2024/04/09 09:19:31;;;;;;;;;;;;;;;;;;5432819;26;6018;-55
2024/04/09 09:22:00;;;;;;;;;;;;;;;;;;5452488;26;5151;-55
2024/04/09 09:24:28;;;;;;;;;;;;;;;;;;5459647;26;3462;-55
2024/04/09 09:27:00;;;;;;;;;;;;;;;;;;5417564;26;5007;-55
2024/04/09 09:29:25;;;;;;;;;;;;;;;;;;5437768;26;5138;-55
2024/04/09 09:31:50;;;;;;;;;;;;;;;;;;5438718;26;4690;-55
2024/04/09 09:34:17;;;;;;;;;;;;;;;;;;5423112;26;5384;-55
2024/04/09 09:36:42;;;;;;;;;;;;;;;;;;5450554;26;1431;-55
2024/04/09 09:39:09;;;;;;;;;;;;;;;;;;5435988;26;4541;-53
2024/04/09 09:41:34;;;;;;;;;;;;;;;;;;5471162;26;4559;-57
2024/04/09 09:44:00;;;;;;;;;;;;;;;;;;5429603;26;5153;-56
2024/04/09 09:46:25;;;;;;;;;;;;;;;;;;5420283;26;5670;-56
2024/04/09 09:48:53;;;;;;;;;;;;;;;;;;5432914;26;3389;-56
2024/04/09 09:51:19;;;;;;;;;;;;;;;;;;5433520;26;5112;-55
2024/04/09 09:53:46;;;;;;;;;;;;;;;;;;5467169;26;4628;-56
2024/04/09 09:56:11;;;;;;;;;;;;;;;;;;5450559;26;4652;-57
2024/04/09 09:58:37;;;;;;;;;;;;;;;;;;5442202;26;4575;-57
2024/04/09 10:01:04;;;;;;;;;;;;;;;;;;5433642;26;4560;-57
2024/04/09 10:03:29;;;;;;;;;;;;;;;;;;5459861;26;3452;-56
2024/04/09 10:05:55;;;;;;;;;;;;;;;;;;5418168;26;5037;-56
2024/04/09 10:08:20;;;;;;;;;;;;;;;;;;5421397;26;5077;-55
2024/04/09 10:10:50;;;;;;;;;;;;;;;;;;5414208;26;4560;-57
2024/04/09 10:13:17;;;;;;;;;;;;;;;;;;5412687;26;4705;-57
2024/04/09 10:15:45;;;;;;;;;;;;;;;;;;5426605;26;1421;-54
2024/04/09 10:18:11;;;;;;;;;;;;;;;;;;5428358;26;4491;-56
2024/04/09 10:20:37;;;;;;;;;;;;;;;;;;5474245;26;4606;-56
2024/04/09 10:23:06;;;;;;;;;;;;;;;;;;5511534;25;5195;-57
2024/04/09 10:25:34;;;;;;;;;;;;;;;;;;5437077;26;5053;-56
2024/04/09 10:28:01;;;;;;;;;;;;;;;;;;5411818;26;4772;-56
2024/04/09 10:30:27;;;;;;;;;;;;;;;;;;5473136;26;1381;-57
2024/04/09 10:32:54;;;;;;;;;;;;;;;;;;5480495;26;4700;-54
2024/04/09 10:35:22;;;;;;;;;;;;;;;;;;5444974;26;5110;-56
2024/04/09 10:37:47;;;;;;;;;;;;;;;;;;5426803;26;4588;-57
2024/04/09 10:40:13;;;;;;;;;;;;;;;;;;5455095;26;5178;-54
2024/04/09 10:42:38;;;;;;;;;;;;;;;;;;5441382;26;1349;-57
2024/04/09 10:45:04;;;;;;;;;;;;;;;;;;5453726;26;4738;-54
2024/04/09 10:47:31;;;;;;;;;;;;;;;;;;5430198;26;5183;-56
2024/04/09 10:49:56;;;;;;;;;;;;;;;;;;5427517;26;5125;-57
2024/04/09 10:52:22;;;;;;;;;;;;;;;;;;5439802;26;4578;-56
2024/04/09 10:54:47;;;;;;;;;;;;;;;;;;5456068;26;3176;-57
2024/04/09 10:57:12;;;;;;;;;;;;;;;;;;5450908;26;4669;-56
2024/04/09 10:59:38;;;;;;;;;;;;;;;;;;5434576;26;5138;-57
2024/04/09 11:02:06;;;;;;;;;;;;;;;;;;5452820;26;5162;-57
2024/04/09 11:04:33;;;;;;;;;;;;;;;;;;5453464;26;5683;-55
2024/04/09 11:07:00;;;;;;;;;;;;;;;;;;5445159;26;5234;-57
2024/04/09 11:09:25;;;;;;;;;;;;;;;;;;5411036;26;1293;-55
2024/04/09 11:11:51;;;;;;;;;;;;;;;;;;5446915;26;4654;-56
2024/04/09 11:14:16;;;;;;;;;;;;;;;;;;5433205;26;5156;-56
2024/04/09 11:16:47;;;;;;;;;;;;;;;;;;5434768;26;5247;-56
2024/04/09 11:19:18;;;;;;;;;;;;;;;;;;5449806;26;4624;-56
2024/04/09 11:21:44;;;;;;;;;;;;;;;;;;5426043;26;1406;-57
2024/04/09 11:24:09;;;;;;;;;;;;;;;;;;5458044;26;4643;-53
2024/04/09 11:26:35;;;;;;;;;;;;;;;;;;5444788;26;5076;-54
2024/04/09 11:29:00;;;;;;;;;;;;;;;;;;5432924;26;4798;-55
2024/04/09 11:31:26;;;;;;;;;;;;;;;;;;5429376;26;5115;-54
2024/04/09 11:33:51;;;;;;;;;;;;;;;;;;5462474;26;5128;-51
2024/04/09 11:36:17;;;;;;;;;;;;;;;;;;5425613;26;1501;-57
2024/04/09 11:38:42;;;;;;;;;;;;;;;;;;5413042;26;5104;-56
2024/04/09 11:41:08;;;;;;;;;;;;;;;;;;5437080;26;4577;-55
2024/04/09 11:43:33;;;;;;;;;;;;;;;;;;5435758;26;5121;-57
2024/04/09 11:45:59;;;;;;;;;;;;;;;;;;5411597;26;4711;-57
2024/04/09 11:48:24;;;;;;;;;;;;;;;;;;5405214;26;1259;-57
2024/04/09 11:50:49;;;;;;;;;;;;;;;;;;5446261;26;5089;-56
2024/04/09 11:53:15;;;;;;;;;;;;;;;;;;5419745;26;5076;-57
2024/04/09 11:55:40;;;;;;;;;;;;;;;;;;5418145;26;4566;-57
2024/04/09 11:58:05;;;;;;;;;;;;;;;;;;5462540;26;5143;-57
2024/04/09 12:00:31;;;;;;;;;;;;;;;;;;5436458;26;1833;-57
2024/04/09 12:02:56;;;;;;;;;;;;;;;;;;5476535;26;5284;-57
2024/04/09 12:05:22;;;;;;;;;;;;;;;;;;5444545;26;4494;-56
2024/04/09 12:07:48;;;;;;;;;;;;;;;;;;5427179;26;5065;-57
2024/04/09 12:10:13;;;;;;;;;;;;;;;;;;5443590;26;5146;-57
2024/04/09 12:12:38;;;;;;;;;;;;;;;;;;5423335;26;4216;-56
2024/04/09 12:15:04;;;;;;;;;;;;;;;;;;5490253;26;5343;-55
2024/04/09 12:17:29;;;;;;;;;;;;;;;;;;5447375;26;5161;-55
2024/04/09 12:19:55;;;;;;;;;;;;;;;;;;5444419;26;4556;-54
2024/04/09 12:22:20;;;;;;;;;;;;;;;;;;5475343;26;5228;-56
2024/04/09 12:24:46;;;;;;;;;;;;;;;;;;5447662;26;1271;-54
2024/04/09 12:27:11;;;;;;;;;;;;;;;;;;5460453;25;5192;-56
2024/04/09 12:29:36;;;;;;;;;;;;;;;;;;5451622;26;5130;-55
2024/04/09 12:32:03;;;;;;;;;;;;;;;;;;5451086;25;4543;-54
2024/04/09 12:34:29;;;;;;;;;;;;;;;;;;5444321;26;5313;-56
2024/04/09 12:36:54;;;;;;;;;;;;;;;;;;5420593;26;4577;-57
2024/04/09 12:39:19;;;;;;;;;;;;;;;;;;5464883;26;2737;-56
2024/04/09 12:41:45;;;;;;;;;;;;;;;;;;5425321;26;5136;-57
2024/04/09 12:44:10;;;;;;;;;;;;;;;;;;5423472;26;5074;-57
2024/04/09 12:46:36;;;;;;;;;;;;;;;;;;5455234;26;4855;-57
2024/04/09 12:49:02;;;;;;;;;;;;;;;;;;5429152;26;5173;-54
2024/04/09 12:51:28;;;;;;;;;;;;;;;;;;5460226;26;1876;-56
2024/04/09 12:53:53;;;;;;;;;;;;;;;;;;5419094;26;4648;-56
2024/04/09 12:56:20;;;;;;;;;;;;;;;;;;5432548;26;5144;-56
2024/04/09 12:58:45;;;;;;;;;;;;;;;;;;5470831;26;5094;-56
2024/04/09 13:01:10;;;;;;;;;;;;;;;;;;5454991;26;5094;-55
2024/04/09 13:03:36;;;;;;;;;;;;;;;;;;5447049;26;1368;-57
2024/04/09 13:06:02;;;;;;;;;;;;;;;;;;5439765;26;5599;-56
2024/04/09 13:08:27;;;;;;;;;;;;;;;;;;5444138;26;5106;-55
2024/04/09 13:10:52;;;;;;;;;;;;;;;;;;5445627;26;4642;-56
2024/04/09 13:13:18;;;;;;;;;;;;;;;;;;5458735;26;5159;-56
2024/04/09 13:15:43;;;;;;;;;;;;;;;;;;5469958;26;1825;-57
2024/04/09 13:18:08;;;;;;;;;;;;;;;;;;5412517;26;5657;-55
2024/04/09 13:20:34;;;;;;;;;;;;;;;;;;5443067;26;5184;-55
2024/04/09 13:22:59;;;;;;;;;;;;;;;;;;5448299;26;4578;-56
2024/04/09 13:25:24;;;;;;;;;;;;;;;;;;5441806;26;5272;-57
2024/04/09 13:27:50;;;;;;;;;;;;;;;;;;5431219;26;3585;-57
2024/04/09 13:30:15;;;;;;;;;;;;;;;;;;5434795;26;5118;-56
2024/04/09 13:32:40;;;;;;;;;;;;;;;;;;5442594;26;4523;-57
2024/04/09 13:35:06;;;;;;;;;;;;;;;;;;5437252;25;4552;-57
2024/04/09 13:37:33;;;;;;;;;;;;;;;;;;5423896;26;4591;-56
2024/04/09 13:39:58;;;;;;;;;;;;;;;;;;5476806;26;5209;-55
2024/04/09 13:42:23;;;;;;;;;;;;;;;;;;5442414;26;1361;-56
2024/04/09 13:44:49;;;;;;;;;;;;;;;;;;5436876;26;5138;-56
2024/04/09 13:47:14;;;;;;;;;;;;;;;;;;5432908;26;4815;-54
2024/04/09 13:49:40;;;;;;;;;;;;;;;;;;5434432;26;5281;-55
2024/04/09 13:52:06;;;;;;;;;;;;;;;;;;5464271;26;5131;-56
2024/04/09 13:54:32;;;;;;;;;;;;;;;;;;5424668;26;3635;-56
2024/04/09 13:56:57;;;;;;;;;;;;;;;;;;5468477;26;5122;-55
2024/04/09 13:59:24;;;;;;;;;;;;;;;;;;5458518;26;4534;-56
2024/04/09 14:01:49;;;;;;;;;;;;;;;;;;5446795;26;5132;-54
2024/04/09 14:04:15;;;;;;;;;;;;;;;;;;5423244;26;5071;-56
2024/04/09 14:06:40;;;;;;;;;;;;;;;;;;5465481;26;3439;-56
2024/04/09 14:09:05;;;;;;;;;;;;;;;;;;5419460;26;4481;-56
2024/04/09 14:11:31;;;;;;;;;;;;;;;;;;5457362;26;5083;-56
2024/04/09 14:13:56;;;;;;;;;;;;;;;;;;5451703;26;4579;-56
2024/04/09 14:16:23;;;;;;;;;;;;;;;;;;5425177;26;4710;-56
2024/04/09 14:18:49;;;;;;;;;;;;;;;;;;5444620;26;1841;-56
2024/04/09 14:21:16;;;;;;;;;;;;;;;;;;5481416;26;5194;-55
2024/04/09 14:23:41;;;;;;;;;;;;;;;;;;5427694;26;5205;-57
2024/04/09 14:26:07;;;;;;;;;;;;;;;;;;5445208;26;5164;-56
2024/04/09 14:28:32;;;;;;;;;;;;;;;;;;5435012;26;5197;-56
2024/04/09 14:30:58;;;;;;;;;;;;;;;;;;5471299;26;5146;-57
2024/04/09 14:33:23;;;;;;;;;;;;;;;;;;5432197;26;1330;-55
2024/04/09 14:35:49;;;;;;;;;;;;;;;;;;5465138;26;4978;-56
2024/04/09 14:38:14;;;;;;;;;;;;;;;;;;5477680;26;4953;-56
2024/04/09 14:40:40;;;;;;;;;;;;;;;;;;5439710;26;5398;-55
2024/04/09 14:43:06;;;;;;;;;;;;;;;;;;5415326;26;5238;-56
2024/04/09 14:45:31;;;;;;;;;;;;;;;;;;5426525;26;3485;-55
2024/04/09 14:47:57;;;;;;;;;;;;;;;;;;5455562;26;4698;-56
2024/04/09 14:50:22;;;;;;;;;;;;;;;;;;5432192;26;5360;-55
2024/04/09 14:52:47;;;;;;;;;;;;;;;;;;5429457;26;5405;-56
2024/04/09 14:55:13;;;;;;;;;;;;;;;;;;5419030;26;5109;-57
2024/04/09 14:57:38;;;;;;;;;;;;;;;;;;5455073;26;1252;-56
2024/04/09 15:00:05;;;;;;;;;;;;;;;;;;5426557;26;5113;-56
2024/04/09 15:02:31;;;;;;;;;;;;;;;;;;5461711;26;4541;-57
2024/04/09 15:04:56;;;;;;;;;;;;;;;;;;5456919;26;5110;-55
2024/04/09 15:07:21;;;;;;;;;;;;;;;;;;5449958;26;5282;-56
2024/04/09 15:09:48;;;;;;;;;;;;;;;;;;5513568;25;3446;-57
2024/04/09 15:12:13;;;;;;;;;;;;;;;;;;5448638;26;4657;-56
2024/04/09 15:14:39;;;;;;;;;;;;;;;;;;5444934;26;5196;-56
2024/04/09 15:17:04;;;;;;;;;;;;;;;;;;5459053;26;4582;-57
2024/04/09 15:19:29;;;;;;;;;;;;;;;;;;5470135;26;5590;-56
2024/04/09 15:21:55;;;;;;;;;;;;;;;;;;5439001;26;5157;-55
2024/04/09 15:24:20;;;;;;;;;;;;;;;;;;5451505;26;3355;-54
2024/04/09 15:26:45;;;;;;;;;;;;;;;;;;5413447;26;5226;-57
2024/04/09 15:29:11;;;;;;;;;;;;;;;;;;5437955;26;4785;-54
2024/04/09 15:31:36;;;;;;;;;;;;;;;;;;5463901;26;4564;-55
2024/04/09 15:34:02;;;;;;;;;;;;;;;;;;5478217;26;5144;-55
2024/04/09 15:36:27;;;;;;;;;;;;;;;;;;5470626;26;1334;-57
2024/04/09 15:38:53;;;;;;;;;;;;;;;;;;5450460;26;4572;-57
2024/04/09 15:41:18;;;;;;;;;;;;;;;;;;5446920;26;5103;-56
2024/04/09 15:43:43;;;;;;;;;;;;;;;;;;5452646;26;5150;-56
2024/04/09 15:46:09;;;;;;;;;;;;;;;;;;5424613;26;4663;-55
2024/04/09 15:48:34;;;;;;;;;;;;;;;;;;5479981;26;1440;-56
2024/04/09 15:50:59;;;;;;;;;;;;;;;;;;5500010;25;4560;-56
2024/04/09 15:53:26;;;;;;;;;;;;;;;;;;5446807;26;4527;-55
2024/04/09 15:55:52;;;;;;;;;;;;;;;;;;5434576;26;5117;-57
2024/04/09 15:58:19;;;;;;;;;;;;;;;;;;5419643;26;5148;-56
2024/04/09 16:00:45;;;;;;;;;;;;;;;;;;5432519;26;1861;-55
2024/04/09 16:03:10;;;;;;;;;;;;;;;;;;5451683;26;5026;-56
2024/04/09 16:05:37;;;;;;;;;;;;;;;;;;5422442;26;4540;-56
2024/04/09 16:08:02;;;;;;;;;;;;;;;;;;5443573;26;5155;-55
2024/04/09 16:10:28;;;;;;;;;;;;;;;;;;5456007;26;4581;-56
2024/04/09 16:12:54;;;;;;;;;;;;;;;;;;5417292;26;5095;-55
2024/04/09 16:15:19;;;;;;;;;;;;;;;;;;5470594;26;1365;-56
2024/04/09 16:17:44;;;;;;;;;;;;;;;;;;5468179;26;5105;-56
2024/04/09 16:20:10;;;;;;;;;;;;;;;;;;5461432;26;4804;-56
2024/04/09 16:22:37;;;;;;;;;;;;;;;;;;5443083;26;5138;-56
2024/04/09 16:25:02;;;;;;;;;;;;;;;;;;5384761;26;5246;-56
2024/04/09 16:27:37;;;;;;;;;;;;;;;;;;5449587;26;3625;-56
2024/04/09 16:30:03;;;;;;;;;;;;;;;;;;5441430;26;5103;-56
2024/04/09 16:32:28;;;;;;;;;;;;;;;;;;5458088;26;4563;-56
2024/04/09 16:34:54;;;;;;;;;;;;;;;;;;5466772;26;4560;-56
2024/04/09 16:37:19;;;;;;;;;;;;;;;;;;5419334;26;4522;-56
2024/04/09 16:39:44;;;;;;;;;;;;;;;;;;5464874;26;1821;-56
2024/04/09 16:42:10;;;;;;;;;;;;;;;;;;5447763;26;4470;-55
2024/04/09 16:44:35;;;;;;;;;;;;;;;;;;5438744;26;5202;-56
2024/04/09 16:47:00;;;;;;;;;;;;;;;;;;5438705;26;4817;-56
2024/04/09 16:49:26;;;;;;;;;;;;;;;;;;5448311;26;4686;-56
2024/04/09 16:51:52;;;;;;;;;;;;;;;;;;5458804;26;3609;-55
2024/04/09 16:54:18;;;;;;;;;;;;;;;;;;5471589;26;4937;-56